Accueil
METAR-TAF:

METAR-TAF

Aéroports :

Aviano Air Base

Aviano, Italie

latitude: 46-02N, longitude: 012-36E, altitude: 128 m

Observation

Le bulletin a été fait il y a 31 heures et 17 minutes, à 14:55 UTC
Vent 5 kt de sud
Température 31°C
Humidité 43%
Pression 1013 hPa
Visibilité 10 km ou plus
Quelques nuages à une hauteur de 5000 ft

METAR: LIPA 171455Z 18005KT 9999 FEW050 31/17 Q1013 RMK FEW VIS MIN 9999 WIND THR05 10002KT WIND THR23 15006KT A2994 BLU

Heure: 00:12 (22:12 UTC)

Prévision

Le bulletin a été fait il y a 5 heures et 12 minutes, à 17:00 UTC
Prévision valable du 21 à 18 UTC au 22 à 03 UTC
Vent 5 kt de ouest/sud-ouest
Visibilité 10 km ou plus
Quelques nuages à une hauteur de 7000 ft
Probabilité 30% :
Temporairement
du 21 à 20 UTC au 21 à 22 UTC
Quelques nuages à une hauteur de 2000 ft, Cumulonimbus.
orage, pluie

TAF: LIPA 211700Z 2118/2203 24005KT 9999 FEW070 PROB30 TEMPO 2120/2122 TSRA FEW020CB

Observations et prévisions météorologiques de plus de 4000 aéroports (messages METAR et TAF).

Les stations disponibles sont représentées par des disques jaunes et rouges sur la carte.

Passer la souris dessus pour voir le nom de la station.

Cliquer dessus pour voir les observations et prévisions météorologiques.

Pour changer de carte: cliquez sur les boutons verts avec une croix noire pour zoomer, sur le bouton vert avec un tiret pour effectuer un zoom arrière, ou sur les flèches vertes pour les cartes adjacentes.


METAR-TAF: